sensor_id;sensor_type;location;lat;lon;timestamp;P1;durP1;ratioP1;P2;durP2;ratioP2
4533;SDS011;2279;51.448;7.306;2022-10-17T00:01:47;6.83;;;6.23;;
4533;SDS011;2279;51.448;7.306;2022-10-17T00:04:13;6.60;;;6.00;;
4533;SDS011;2279;51.448;7.306;2022-10-17T00:06:39;6.93;;;6.23;;
4533;SDS011;2279;51.448;7.306;2022-10-17T00:09:05;10.70;;;6.20;;
4533;SDS011;2279;51.448;7.306;2022-10-17T00:11:31;8.60;;;6.07;;
4533;SDS011;2279;51.448;7.306;2022-10-17T00:13:58;9.80;;;6.13;;
4533;SDS011;2279;51.448;7.306;2022-10-17T00:16:27;9.27;;;8.33;;
4533;SDS011;2279;51.448;7.306;2022-10-17T00:18:54;8.80;;;6.00;;
4533;SDS011;2279;51.448;7.306;2022-10-17T00:21:20;8.03;;;5.57;;
4533;SDS011;2279;51.448;7.306;2022-10-17T00:23:46;6.83;;;6.00;;
4533;SDS011;2279;51.448;7.306;2022-10-17T00:26:13;8.40;;;5.80;;
4533;SDS011;2279;51.448;7.306;2022-10-17T00:28:39;6.77;;;5.50;;
4533;SDS011;2279;51.448;7.306;2022-10-17T00:31:05;6.10;;;5.50;;
4533;SDS011;2279;51.448;7.306;2022-10-17T00:33:33;9.30;;;5.43;;
4533;SDS011;2279;51.448;7.306;2022-10-17T00:36:07;7.37;;;6.17;;
4533;SDS011;2279;51.448;7.306;2022-10-17T00:38:33;7.70;;;5.87;;
4533;SDS011;2279;51.448;7.306;2022-10-17T00:40:59;6.70;;;5.53;;
4533;SDS011;2279;51.448;7.306;2022-10-17T00:43:25;6.23;;;5.70;;
4533;SDS011;2279;51.448;7.306;2022-10-17T00:45:51;8.07;;;5.70;;
4533;SDS011;2279;51.448;7.306;2022-10-17T00:48:17;9.50;;;6.77;;
4533;SDS011;2279;51.448;7.306;2022-10-17T00:50:44;9.83;;;6.07;;
4533;SDS011;2279;51.448;7.306;2022-10-17T00:53:12;7.90;;;6.13;;
4533;SDS011;2279;51.448;7.306;2022-10-17T00:55:44;8.70;;;4.70;;
4533;SDS011;2279;51.448;7.306;2022-10-17T00:58:13;6.33;;;5.57;;
4533;SDS011;2279;51.448;7.306;2022-10-17T01:00:39;6.73;;;4.80;;
4533;SDS011;2279;51.448;7.306;2022-10-17T01:03:05;8.57;;;5.80;;
4533;SDS011;2279;51.448;7.306;2022-10-17T01:05:31;6.30;;;5.70;;
4533;SDS011;2279;51.448;7.306;2022-10-17T01:07:57;11.37;;;5.60;;
4533;SDS011;2279;51.448;7.306;2022-10-17T01:10:25;6.03;;;5.20;;
4533;SDS011;2279;51.448;7.306;2022-10-17T01:13:10;6.40;;;5.40;;
4533;SDS011;2279;51.448;7.306;2022-10-17T01:15:46;6.33;;;4.93;;
4533;SDS011;2279;51.448;7.306;2022-10-17T01:26:04;5.40;;;4.90;;
4533;SDS011;2279;51.448;7.306;2022-10-17T01:29:00;8.07;;;5.20;;
4533;SDS011;2279;51.448;7.306;2022-10-17T01:34:06;6.07;;;5.50;;
4533;SDS011;2279;51.448;7.306;2022-10-17T01:39:24;7.40;;;5.10;;
4533;SDS011;2279;51.448;7.306;2022-10-17T01:41:58;5.83;;;5.13;;
4533;SDS011;2279;51.448;7.306;2022-10-17T01:44:28;8.40;;;5.23;;
4533;SDS011;2279;51.448;7.306;2022-10-17T01:46:59;6.83;;;5.40;;
4533;SDS011;2279;51.448;7.306;2022-10-17T01:49:27;8.13;;;5.40;;
4533;SDS011;2279;51.448;7.306;2022-10-17T01:52:01;8.47;;;4.70;;
4533;SDS011;2279;51.448;7.306;2022-10-17T01:57:04;10.70;;;4.90;;
4533;SDS011;2279;51.448;7.306;2022-10-17T01:59:34;5.40;;;4.90;;
4533;SDS011;2279;51.448;7.306;2022-10-17T02:02:02;5.00;;;4.50;;
4533;SDS011;2279;51.448;7.306;2022-10-17T02:04:29;5.33;;;4.80;;
4533;SDS011;2279;51.448;7.306;2022-10-17T02:06:55;7.27;;;5.37;;
4533;SDS011;2279;51.448;7.306;2022-10-17T02:09:25;5.97;;;5.30;;
4533;SDS011;2279;51.448;7.306;2022-10-17T02:12:12;8.33;;;5.23;;
4533;SDS011;2279;51.448;7.306;2022-10-17T02:14:42;6.70;;;4.87;;
4533;SDS011;2279;51.448;7.306;2022-10-17T02:20:02;5.30;;;4.80;;
4533;SDS011;2279;51.448;7.306;2022-10-17T02:22:43;5.20;;;4.53;;
4533;SDS011;2279;51.448;7.306;2022-10-17T02:30:08;9.63;;;5.23;;
4533;SDS011;2279;51.448;7.306;2022-10-17T02:32:37;5.60;;;4.93;;
4533;SDS011;2279;51.448;7.306;2022-10-17T02:35:06;6.50;;;4.10;;
4533;SDS011;2279;51.448;7.306;2022-10-17T02:37:33;7.27;;;5.23;;
4533;SDS011;2279;51.448;7.306;2022-10-17T02:40:00;5.40;;;4.90;;
4533;SDS011;2279;51.448;7.306;2022-10-17T02:42:26;6.57;;;4.93;;
4533;SDS011;2279;51.448;7.306;2022-10-17T02:44:53;6.00;;;4.60;;
4533;SDS011;2279;51.448;7.306;2022-10-17T02:47:26;8.93;;;4.97;;
4533;SDS011;2279;51.448;7.306;2022-10-17T02:49:55;6.27;;;4.93;;
4533;SDS011;2279;51.448;7.306;2022-10-17T02:52:32;5.97;;;5.07;;
4533;SDS011;2279;51.448;7.306;2022-10-17T02:55:03;4.93;;;4.57;;
4533;SDS011;2279;51.448;7.306;2022-10-17T02:57:37;7.73;;;5.20;;
4533;SDS011;2279;51.448;7.306;2022-10-17T03:00:06;5.23;;;4.83;;
4533;SDS011;2279;51.448;7.306;2022-10-17T03:02:40;5.37;;;4.90;;
4533;SDS011;2279;51.448;7.306;2022-10-17T03:05:06;7.10;;;4.40;;
4533;SDS011;2279;51.448;7.306;2022-10-17T03:07:32;5.77;;;5.27;;
4533;SDS011;2279;51.448;7.306;2022-10-17T03:09:58;7.70;;;5.70;;
4533;SDS011;2279;51.448;7.306;2022-10-17T03:12:24;9.80;;;4.80;;
4533;SDS011;2279;51.448;7.306;2022-10-17T03:14:50;5.27;;;4.87;;
4533;SDS011;2279;51.448;7.306;2022-10-17T03:17:16;5.90;;;4.70;;
4533;SDS011;2279;51.448;7.306;2022-10-17T03:19:42;5.00;;;4.57;;
4533;SDS011;2279;51.448;7.306;2022-10-17T03:22:08;6.63;;;4.83;;
4533;SDS011;2279;51.448;7.306;2022-10-17T03:24:34;13.67;;;5.27;;
4533;SDS011;2279;51.448;7.306;2022-10-17T03:27:00;5.33;;;4.73;;
4533;SDS011;2279;51.448;7.306;2022-10-17T03:29:26;5.10;;;4.70;;
4533;SDS011;2279;51.448;7.306;2022-10-17T03:31:52;5.50;;;5.00;;
4533;SDS011;2279;51.448;7.306;2022-10-17T03:34:18;5.20;;;4.70;;
4533;SDS011;2279;51.448;7.306;2022-10-17T03:36:44;4.50;;;4.10;;
4533;SDS011;2279;51.448;7.306;2022-10-17T03:39:10;5.70;;;4.57;;
4533;SDS011;2279;51.448;7.306;2022-10-17T03:41:36;8.63;;;5.10;;
4533;SDS011;2279;51.448;7.306;2022-10-17T03:44:02;9.70;;;4.60;;
4533;SDS011;2279;51.448;7.306;2022-10-17T03:46:28;8.53;;;6.33;;
4533;SDS011;2279;51.448;7.306;2022-10-17T03:48:54;6.23;;;4.77;;
4533;SDS011;2279;51.448;7.306;2022-10-17T03:51:20;7.40;;;5.30;;
4533;SDS011;2279;51.448;7.306;2022-10-17T03:53:46;9.47;;;4.70;;
4533;SDS011;2279;51.448;7.306;2022-10-17T03:56:16;7.80;;;4.47;;
4533;SDS011;2279;51.448;7.306;2022-10-17T03:58:43;4.73;;;4.17;;
4533;SDS011;2279;51.448;7.306;2022-10-17T04:01:09;7.93;;;4.40;;
4533;SDS011;2279;51.448;7.306;2022-10-17T04:03:36;5.80;;;4.30;;
4533;SDS011;2279;51.448;7.306;2022-10-17T04:06:02;5.10;;;4.33;;
4533;SDS011;2279;51.448;7.306;2022-10-17T04:08:29;5.07;;;4.67;;
4533;SDS011;2279;51.448;7.306;2022-10-17T04:10:59;5.80;;;4.37;;
4533;SDS011;2279;51.448;7.306;2022-10-17T04:13:25;5.33;;;4.80;;
4533;SDS011;2279;51.448;7.306;2022-10-17T04:16:10;7.20;;;4.80;;
4533;SDS011;2279;51.448;7.306;2022-10-17T04:18:37;7.40;;;5.40;;
4533;SDS011;2279;51.448;7.306;2022-10-17T04:21:03;5.37;;;4.87;;
4533;SDS011;2279;51.448;7.306;2022-10-17T04:23:29;5.53;;;4.50;;
4533;SDS011;2279;51.448;7.306;2022-10-17T04:25:56;5.20;;;4.20;;
4533;SDS011;2279;51.448;7.306;2022-10-17T04:28:23;7.30;;;5.10;;
4533;SDS011;2279;51.448;7.306;2022-10-17T04:31:02;5.20;;;4.70;;
4533;SDS011;2279;51.448;7.306;2022-10-17T04:33:28;7.17;;;5.00;;
4533;SDS011;2279;51.448;7.306;2022-10-17T04:36:04;4.43;;;4.03;;
4533;SDS011;2279;51.448;7.306;2022-10-17T04:38:31;6.70;;;4.90;;
4533;SDS011;2279;51.448;7.306;2022-10-17T04:40:58;8.17;;;5.00;;
4533;SDS011;2279;51.448;7.306;2022-10-17T04:43:27;4.63;;;4.23;;
4533;SDS011;2279;51.448;7.306;2022-10-17T04:45:53;7.50;;;4.50;;
4533;SDS011;2279;51.448;7.306;2022-10-17T04:48:19;4.93;;;4.43;;
4533;SDS011;2279;51.448;7.306;2022-10-17T04:50:54;4.97;;;4.20;;
4533;SDS011;2279;51.448;7.306;2022-10-17T04:53:21;7.83;;;4.63;;
4533;SDS011;2279;51.448;7.306;2022-10-17T04:55:47;6.17;;;5.73;;
4533;SDS011;2279;51.448;7.306;2022-10-17T04:58:13;5.30;;;4.10;;
4533;SDS011;2279;51.448;7.306;2022-10-17T05:00:39;5.33;;;4.83;;
4533;SDS011;2279;51.448;7.306;2022-10-17T05:03:05;4.90;;;4.50;;
4533;SDS011;2279;51.448;7.306;2022-10-17T05:05:31;5.87;;;4.80;;
4533;SDS011;2279;51.448;7.306;2022-10-17T05:07:57;4.83;;;4.43;;
4533;SDS011;2279;51.448;7.306;2022-10-17T05:10:23;6.07;;;4.40;;
4533;SDS011;2279;51.448;7.306;2022-10-17T05:12:49;4.87;;;4.47;;
4533;SDS011;2279;51.448;7.306;2022-10-17T05:15:15;8.47;;;4.33;;
4533;SDS011;2279;51.448;7.306;2022-10-17T05:17:41;4.77;;;4.37;;
4533;SDS011;2279;51.448;7.306;2022-10-17T05:20:07;5.47;;;4.27;;
4533;SDS011;2279;51.448;7.306;2022-10-17T05:22:34;5.60;;;5.00;;
4533;SDS011;2279;51.448;7.306;2022-10-17T05:24:59;10.03;;;4.60;;
4533;SDS011;2279;51.448;7.306;2022-10-17T05:27:25;5.83;;;4.73;;
4533;SDS011;2279;51.448;7.306;2022-10-17T05:29:51;9.03;;;4.90;;
4533;SDS011;2279;51.448;7.306;2022-10-17T05:32:17;8.33;;;4.73;;
4533;SDS011;2279;51.448;7.306;2022-10-17T05:34:43;6.03;;;4.73;;
4533;SDS011;2279;51.448;7.306;2022-10-17T05:37:09;5.27;;;4.30;;
4533;SDS011;2279;51.448;7.306;2022-10-17T05:39:35;10.07;;;5.00;;
4533;SDS011;2279;51.448;7.306;2022-10-17T05:42:01;7.87;;;5.20;;
4533;SDS011;2279;51.448;7.306;2022-10-17T05:44:27;6.10;;;4.30;;
4533;SDS011;2279;51.448;7.306;2022-10-17T05:46:53;9.60;;;4.60;;
4533;SDS011;2279;51.448;7.306;2022-10-17T05:49:19;6.43;;;5.93;;
4533;SDS011;2279;51.448;7.306;2022-10-17T05:51:45;7.20;;;4.17;;
4533;SDS011;2279;51.448;7.306;2022-10-17T05:54:11;4.57;;;4.23;;
4533;SDS011;2279;51.448;7.306;2022-10-17T05:56:37;5.17;;;4.63;;
4533;SDS011;2279;51.448;7.306;2022-10-17T05:59:03;8.07;;;4.20;;
4533;SDS011;2279;51.448;7.306;2022-10-17T06:01:29;8.73;;;5.10;;
4533;SDS011;2279;51.448;7.306;2022-10-17T06:03:55;6.30;;;4.30;;
4533;SDS011;2279;51.448;7.306;2022-10-17T06:06:21;5.40;;;5.00;;
4533;SDS011;2279;51.448;7.306;2022-10-17T06:08:47;8.63;;;4.53;;
4533;SDS011;2279;51.448;7.306;2022-10-17T06:11:13;5.73;;;4.53;;
4533;SDS011;2279;51.448;7.306;2022-10-17T06:13:39;6.37;;;4.33;;
4533;SDS011;2279;51.448;7.306;2022-10-17T06:16:05;11.63;;;5.07;;
4533;SDS011;2279;51.448;7.306;2022-10-17T06:18:31;5.93;;;4.73;;
4533;SDS011;2279;51.448;7.306;2022-10-17T06:21:01;5.90;;;5.30;;
4533;SDS011;2279;51.448;7.306;2022-10-17T06:23:27;5.63;;;4.80;;
4533;SDS011;2279;51.448;7.306;2022-10-17T06:25:56;5.17;;;4.67;;
4533;SDS011;2279;51.448;7.306;2022-10-17T06:28:22;5.30;;;4.53;;
4533;SDS011;2279;51.448;7.306;2022-10-17T06:30:48;4.67;;;4.37;;
4533;SDS011;2279;51.448;7.306;2022-10-17T06:33:14;4.73;;;4.33;;
4533;SDS011;2279;51.448;7.306;2022-10-17T06:35:40;4.73;;;4.33;;
4533;SDS011;2279;51.448;7.306;2022-10-17T06:38:06;5.37;;;4.83;;
4533;SDS011;2279;51.448;7.306;2022-10-17T06:40:32;6.63;;;4.70;;
4533;SDS011;2279;51.448;7.306;2022-10-17T06:42:58;5.07;;;4.00;;
4533;SDS011;2279;51.448;7.306;2022-10-17T06:45:24;4.93;;;4.47;;
4533;SDS011;2279;51.448;7.306;2022-10-17T06:47:50;4.63;;;4.10;;
4533;SDS011;2279;51.448;7.306;2022-10-17T06:50:16;5.07;;;4.13;;
4533;SDS011;2279;51.448;7.306;2022-10-17T06:52:42;5.70;;;4.73;;
4533;SDS011;2279;51.448;7.306;2022-10-17T06:55:08;4.33;;;3.93;;
4533;SDS011;2279;51.448;7.306;2022-10-17T06:57:34;4.90;;;4.50;;
4533;SDS011;2279;51.448;7.306;2022-10-17T07:00:00;5.37;;;4.87;;
4533;SDS011;2279;51.448;7.306;2022-10-17T07:02:26;5.30;;;4.83;;
4533;SDS011;2279;51.448;7.306;2022-10-17T07:04:52;7.73;;;5.30;;
4533;SDS011;2279;51.448;7.306;2022-10-17T07:07:18;4.50;;;4.10;;
4533;SDS011;2279;51.448;7.306;2022-10-17T07:09:44;6.30;;;4.23;;
4533;SDS011;2279;51.448;7.306;2022-10-17T07:12:10;4.47;;;4.03;;
4533;SDS011;2279;51.448;7.306;2022-10-17T07:14:36;4.23;;;3.90;;
4533;SDS011;2279;51.448;7.306;2022-10-17T07:17:02;4.90;;;4.40;;
4533;SDS011;2279;51.448;7.306;2022-10-17T07:19:28;5.70;;;4.47;;
4533;SDS011;2279;51.448;7.306;2022-10-17T07:21:54;6.73;;;4.13;;
4533;SDS011;2279;51.448;7.306;2022-10-17T07:24:20;5.17;;;4.77;;
4533;SDS011;2279;51.448;7.306;2022-10-17T07:26:46;7.37;;;4.20;;
4533;SDS011;2279;51.448;7.306;2022-10-17T07:29:12;7.10;;;4.57;;
4533;SDS011;2279;51.448;7.306;2022-10-17T07:31:38;5.80;;;4.90;;
4533;SDS011;2279;51.448;7.306;2022-10-17T07:34:04;4.33;;;3.93;;
4533;SDS011;2279;51.448;7.306;2022-10-17T07:36:30;4.73;;;4.00;;
4533;SDS011;2279;51.448;7.306;2022-10-17T07:38:56;5.83;;;4.00;;
4533;SDS011;2279;51.448;7.306;2022-10-17T07:41:22;6.47;;;4.03;;
4533;SDS011;2279;51.448;7.306;2022-10-17T07:43:48;3.60;;;3.40;;
4533;SDS011;2279;51.448;7.306;2022-10-17T07:46:14;5.30;;;4.30;;
4533;SDS011;2279;51.448;7.306;2022-10-17T07:48:40;4.33;;;4.00;;
4533;SDS011;2279;51.448;7.306;2022-10-17T07:51:07;5.07;;;3.77;;
4533;SDS011;2279;51.448;7.306;2022-10-17T07:53:37;4.80;;;4.23;;
4533;SDS011;2279;51.448;7.306;2022-10-17T07:56:07;9.83;;;4.13;;
4533;SDS011;2279;51.448;7.306;2022-10-17T07:58:33;7.00;;;4.20;;
4533;SDS011;2279;51.448;7.306;2022-10-17T08:01:00;7.23;;;4.23;;
4533;SDS011;2279;51.448;7.306;2022-10-17T08:03:26;4.40;;;4.00;;
4533;SDS011;2279;51.448;7.306;2022-10-17T08:05:55;8.40;;;4.07;;
4533;SDS011;2279;51.448;7.306;2022-10-17T08:08:21;5.00;;;3.90;;
4533;SDS011;2279;51.448;7.306;2022-10-17T08:10:47;5.07;;;3.80;;
4533;SDS011;2279;51.448;7.306;2022-10-17T08:13:13;4.77;;;3.63;;
4533;SDS011;2279;51.448;7.306;2022-10-17T08:15:39;4.10;;;3.70;;
4533;SDS011;2279;51.448;7.306;2022-10-17T08:18:05;4.53;;;4.10;;
4533;SDS011;2279;51.448;7.306;2022-10-17T08:20:31;7.23;;;3.90;;
4533;SDS011;2279;51.448;7.306;2022-10-17T08:22:57;4.43;;;3.70;;
4533;SDS011;2279;51.448;7.306;2022-10-17T08:25:23;3.47;;;3.27;;
4533;SDS011;2279;51.448;7.306;2022-10-17T08:27:49;7.03;;;4.07;;
4533;SDS011;2279;51.448;7.306;2022-10-17T08:30:15;6.97;;;4.17;;
4533;SDS011;2279;51.448;7.306;2022-10-17T08:32:41;5.57;;;3.97;;
4533;SDS011;2279;51.448;7.306;2022-10-17T08:35:07;5.30;;;3.67;;
4533;SDS011;2279;51.448;7.306;2022-10-17T08:37:33;3.70;;;3.40;;
4533;SDS011;2279;51.448;7.306;2022-10-17T08:39:59;5.03;;;3.63;;
4533;SDS011;2279;51.448;7.306;2022-10-17T08:50:10;5.20;;;3.83;;
4533;SDS011;2279;51.448;7.306;2022-10-17T08:52:43;6.70;;;3.10;;
4533;SDS011;2279;51.448;7.306;2022-10-17T08:55:13;7.20;;;3.80;;
4533;SDS011;2279;51.448;7.306;2022-10-17T08:57:40;4.00;;;3.70;;
4533;SDS011;2279;51.448;7.306;2022-10-17T09:00:11;7.30;;;3.33;;
4533;SDS011;2279;51.448;7.306;2022-10-17T09:07:42;6.33;;;3.50;;
4533;SDS011;2279;51.448;7.306;2022-10-17T09:17:54;5.10;;;2.87;;
4533;SDS011;2279;51.448;7.306;2022-10-17T09:20:27;5.20;;;3.33;;
4533;SDS011;2279;51.448;7.306;2022-10-17T09:22:58;5.87;;;3.73;;
4533;SDS011;2279;51.448;7.306;2022-10-17T09:25:25;3.33;;;3.03;;
4533;SDS011;2279;51.448;7.306;2022-10-17T09:33:09;3.30;;;3.00;;
4533;SDS011;2279;51.448;7.306;2022-10-17T09:35:36;5.40;;;3.33;;
4533;SDS011;2279;51.448;7.306;2022-10-17T09:38:03;10.40;;;4.60;;
4533;SDS011;2279;51.448;7.306;2022-10-17T09:40:33;6.70;;;3.63;;
4533;SDS011;2279;51.448;7.306;2022-10-17T09:43:00;7.13;;;3.80;;
4533;SDS011;2279;51.448;7.306;2022-10-17T09:45:27;8.00;;;3.77;;
4533;SDS011;2279;51.448;7.306;2022-10-17T09:48:06;5.80;;;3.60;;
4533;SDS011;2279;51.448;7.306;2022-10-17T09:50:35;5.20;;;3.83;;
4533;SDS011;2279;51.448;7.306;2022-10-17T09:53:22;3.90;;;3.60;;
4533;SDS011;2279;51.448;7.306;2022-10-17T09:55:48;8.63;;;3.60;;
4533;SDS011;2279;51.448;7.306;2022-10-17T09:58:16;7.73;;;3.50;;
4533;SDS011;2279;51.448;7.306;2022-10-17T10:00:45;3.50;;;3.20;;
4533;SDS011;2279;51.448;7.306;2022-10-17T10:03:19;6.57;;;3.80;;
4533;SDS011;2279;51.448;7.306;2022-10-17T10:06:19;4.53;;;4.17;;
4533;SDS011;2279;51.448;7.306;2022-10-17T10:08:51;3.63;;;3.33;;
4533;SDS011;2279;51.448;7.306;2022-10-17T10:11:18;7.03;;;3.50;;
4533;SDS011;2279;51.448;7.306;2022-10-17T10:13:47;4.77;;;3.70;;
4533;SDS011;2279;51.448;7.306;2022-10-17T10:16:18;5.07;;;3.37;;
4533;SDS011;2279;51.448;7.306;2022-10-17T10:18:44;5.40;;;3.50;;
4533;SDS011;2279;51.448;7.306;2022-10-17T10:23:41;5.90;;;3.73;;
4533;SDS011;2279;51.448;7.306;2022-10-17T10:26:23;4.63;;;3.70;;
4533;SDS011;2279;51.448;7.306;2022-10-17T10:28:50;6.90;;;4.07;;
4533;SDS011;2279;51.448;7.306;2022-10-17T10:31:23;4.83;;;3.77;;
4533;SDS011;2279;51.448;7.306;2022-10-17T10:33:50;5.63;;;3.60;;
4533;SDS011;2279;51.448;7.306;2022-10-17T10:36:16;7.80;;;3.53;;
4533;SDS011;2279;51.448;7.306;2022-10-17T10:38:50;7.23;;;3.00;;
4533;SDS011;2279;51.448;7.306;2022-10-17T10:41:17;3.50;;;3.20;;
4533;SDS011;2279;51.448;7.306;2022-10-17T10:43:44;9.03;;;3.30;;
4533;SDS011;2279;51.448;7.306;2022-10-17T10:46:23;3.97;;;3.47;;
4533;SDS011;2279;51.448;7.306;2022-10-17T10:51:17;9.43;;;3.03;;
4533;SDS011;2279;51.448;7.306;2022-10-17T10:53:58;5.50;;;3.13;;
4533;SDS011;2279;51.448;7.306;2022-10-17T10:56:33;3.93;;;3.60;;
4533;SDS011;2279;51.448;7.306;2022-10-17T11:04:18;6.23;;;3.50;;
4533;SDS011;2279;51.448;7.306;2022-10-17T11:06:42;4.70;;;3.20;;
4533;SDS011;2279;51.448;7.306;2022-10-17T11:09:23;6.70;;;3.53;;
4533;SDS011;2279;51.448;7.306;2022-10-17T11:11:56;4.10;;;3.70;;
4533;SDS011;2279;51.448;7.306;2022-10-17T11:14:31;3.63;;;2.90;;
4533;SDS011;2279;51.448;7.306;2022-10-17T11:17:04;5.63;;;3.53;;
4533;SDS011;2279;51.448;7.306;2022-10-17T11:19:41;5.43;;;3.63;;
4533;SDS011;2279;51.448;7.306;2022-10-17T11:22:20;6.23;;;3.47;;
4533;SDS011;2279;51.448;7.306;2022-10-17T11:27:14;4.03;;;3.70;;
4533;SDS011;2279;51.448;7.306;2022-10-17T11:29:40;6.87;;;3.67;;
4533;SDS011;2279;51.448;7.306;2022-10-17T11:32:10;4.27;;;3.60;;
4533;SDS011;2279;51.448;7.306;2022-10-17T11:34:39;4.60;;;3.40;;
4533;SDS011;2279;51.448;7.306;2022-10-17T11:37:24;6.50;;;3.60;;
4533;SDS011;2279;51.448;7.306;2022-10-17T11:39:54;8.10;;;4.23;;
4533;SDS011;2279;51.448;7.306;2022-10-17T11:42:32;9.93;;;3.63;;
4533;SDS011;2279;51.448;7.306;2022-10-17T11:45:18;6.57;;;3.93;;
4533;SDS011;2279;51.448;7.306;2022-10-17T11:50:23;6.10;;;3.30;;
4533;SDS011;2279;51.448;7.306;2022-10-17T11:52:51;6.47;;;3.93;;
4533;SDS011;2279;51.448;7.306;2022-10-17T11:55:23;4.60;;;3.83;;
4533;SDS011;2279;51.448;7.306;2022-10-17T11:57:51;5.40;;;3.23;;
4533;SDS011;2279;51.448;7.306;2022-10-17T12:02:56;3.27;;;3.07;;
4533;SDS011;2279;51.448;7.306;2022-10-17T12:15:52;3.67;;;3.37;;
4533;SDS011;2279;51.448;7.306;2022-10-17T12:18:18;5.70;;;3.63;;
4533;SDS011;2279;51.448;7.306;2022-10-17T12:20:54;7.77;;;3.73;;
4533;SDS011;2279;51.448;7.306;2022-10-17T12:23:22;6.17;;;3.97;;
4533;SDS011;2279;51.448;7.306;2022-10-17T12:25:54;7.53;;;3.90;;
4533;SDS011;2279;51.448;7.306;2022-10-17T12:31:07;4.40;;;3.60;;
4533;SDS011;2279;51.448;7.306;2022-10-17T12:38:51;4.23;;;3.30;;
4533;SDS011;2279;51.448;7.306;2022-10-17T12:46:45;5.10;;;4.20;;
4533;SDS011;2279;51.448;7.306;2022-10-17T12:49:22;5.53;;;3.33;;
4533;SDS011;2279;51.448;7.306;2022-10-17T12:52:04;4.80;;;3.53;;
4533;SDS011;2279;51.448;7.306;2022-10-17T12:54:30;4.20;;;3.80;;
4533;SDS011;2279;51.448;7.306;2022-10-17T12:56:58;5.33;;;3.60;;
4533;SDS011;2279;51.448;7.306;2022-10-17T12:59:25;14.13;;;3.97;;
4533;SDS011;2279;51.448;7.306;2022-10-17T13:01:53;11.37;;;3.80;;
4533;SDS011;2279;51.448;7.306;2022-10-17T13:04:20;3.57;;;3.27;;
4533;SDS011;2279;51.448;7.306;2022-10-17T13:06:47;3.50;;;3.20;;
4533;SDS011;2279;51.448;7.306;2022-10-17T13:09:27;3.50;;;3.20;;
4533;SDS011;2279;51.448;7.306;2022-10-17T13:11:54;4.63;;;4.10;;
4533;SDS011;2279;51.448;7.306;2022-10-17T13:14:21;6.23;;;4.70;;
4533;SDS011;2279;51.448;7.306;2022-10-17T13:19:21;7.47;;;4.37;;
4533;SDS011;2279;51.448;7.306;2022-10-17T13:21:57;8.43;;;4.07;;
4533;SDS011;2279;51.448;7.306;2022-10-17T13:24:38;4.43;;;4.03;;
4533;SDS011;2279;51.448;7.306;2022-10-17T13:27:05;6.30;;;4.70;;
4533;SDS011;2279;51.448;7.306;2022-10-17T13:29:31;6.60;;;4.33;;
4533;SDS011;2279;51.448;7.306;2022-10-17T13:31:58;4.73;;;4.20;;
4533;SDS011;2279;51.448;7.306;2022-10-17T13:34:25;9.20;;;4.37;;
4533;SDS011;2279;51.448;7.306;2022-10-17T13:36:53;5.60;;;4.07;;
4533;SDS011;2279;51.448;7.306;2022-10-17T13:39:21;11.63;;;4.20;;
4533;SDS011;2279;51.448;7.306;2022-10-17T13:41:48;7.50;;;4.40;;
4533;SDS011;2279;51.448;7.306;2022-10-17T13:44:16;18.90;;;4.30;;
4533;SDS011;2279;51.448;7.306;2022-10-17T13:46:42;4.57;;;4.10;;
4533;SDS011;2279;51.448;7.306;2022-10-17T13:49:20;4.53;;;4.13;;
4533;SDS011;2279;51.448;7.306;2022-10-17T13:51:47;9.17;;;4.10;;
4533;SDS011;2279;51.448;7.306;2022-10-17T13:56:59;9.00;;;4.77;;
4533;SDS011;2279;51.448;7.306;2022-10-17T13:59:44;10.00;;;4.07;;
4533;SDS011;2279;51.448;7.306;2022-10-17T14:02:45;4.30;;;3.90;;
4533;SDS011;2279;51.448;7.306;2022-10-17T14:07:40;11.67;;;5.20;;
4533;SDS011;2279;51.448;7.306;2022-10-17T14:10:17;9.10;;;4.70;;
4533;SDS011;2279;51.448;7.306;2022-10-17T14:12:44;6.60;;;4.67;;
4533;SDS011;2279;51.448;7.306;2022-10-17T14:15:12;7.40;;;4.80;;
4533;SDS011;2279;51.448;7.306;2022-10-17T14:17:39;6.70;;;4.40;;
4533;SDS011;2279;51.448;7.306;2022-10-17T14:20:05;11.90;;;5.40;;
4533;SDS011;2279;51.448;7.306;2022-10-17T14:22:35;10.73;;;5.37;;
4533;SDS011;2279;51.448;7.306;2022-10-17T14:25:02;10.33;;;5.27;;
4533;SDS011;2279;51.448;7.306;2022-10-17T14:27:51;11.40;;;5.40;;
4533;SDS011;2279;51.448;7.306;2022-10-17T14:32:52;10.53;;;5.53;;
4533;SDS011;2279;51.448;7.306;2022-10-17T14:35:19;8.33;;;6.47;;
4533;SDS011;2279;51.448;7.306;2022-10-17T14:37:46;8.00;;;5.13;;
4533;SDS011;2279;51.448;7.306;2022-10-17T14:40:14;6.93;;;4.73;;
4533;SDS011;2279;51.448;7.306;2022-10-17T14:42:40;15.27;;;5.20;;
4533;SDS011;2279;51.448;7.306;2022-10-17T14:45:07;11.00;;;4.50;;
4533;SDS011;2279;51.448;7.306;2022-10-17T14:47:34;7.77;;;5.00;;
4533;SDS011;2279;51.448;7.306;2022-10-17T14:50:04;7.00;;;4.47;;
4533;SDS011;2279;51.448;7.306;2022-10-17T14:52:31;8.40;;;5.40;;
4533;SDS011;2279;51.448;7.306;2022-10-17T14:54:57;5.77;;;5.20;;
4533;SDS011;2279;51.448;7.306;2022-10-17T14:57:28;7.30;;;5.47;;
4533;SDS011;2279;51.448;7.306;2022-10-17T14:59:59;9.80;;;6.33;;
4533;SDS011;2279;51.448;7.306;2022-10-17T15:02:26;6.73;;;5.40;;
4533;SDS011;2279;51.448;7.306;2022-10-17T15:04:52;12.47;;;5.83;;
4533;SDS011;2279;51.448;7.306;2022-10-17T15:07:18;5.73;;;4.80;;
4533;SDS011;2279;51.448;7.306;2022-10-17T15:09:46;4.70;;;4.30;;
4533;SDS011;2279;51.448;7.306;2022-10-17T15:12:16;6.17;;;4.30;;
4533;SDS011;2279;51.448;7.306;2022-10-17T15:14:43;7.83;;;3.80;;
4533;SDS011;2279;51.448;7.306;2022-10-17T15:17:13;5.23;;;4.00;;
4533;SDS011;2279;51.448;7.306;2022-10-17T15:19:40;6.40;;;4.20;;
4533;SDS011;2279;51.448;7.306;2022-10-17T15:22:06;6.80;;;5.10;;
4533;SDS011;2279;51.448;7.306;2022-10-17T15:24:32;8.03;;;4.17;;
4533;SDS011;2279;51.448;7.306;2022-10-17T15:26:58;10.87;;;4.40;;
4533;SDS011;2279;51.448;7.306;2022-10-17T15:29:24;8.13;;;4.00;;
4533;SDS011;2279;51.448;7.306;2022-10-17T15:31:49;6.33;;;4.43;;
4533;SDS011;2279;51.448;7.306;2022-10-17T15:34:15;7.10;;;5.07;;
4533;SDS011;2279;51.448;7.306;2022-10-17T15:36:45;8.80;;;4.80;;
4533;SDS011;2279;51.448;7.306;2022-10-17T15:39:12;12.70;;;5.33;;
4533;SDS011;2279;51.448;7.306;2022-10-17T15:41:38;7.30;;;4.93;;
4533;SDS011;2279;51.448;7.306;2022-10-17T15:44:04;12.73;;;5.07;;
4533;SDS011;2279;51.448;7.306;2022-10-17T15:46:33;11.63;;;5.00;;
4533;SDS011;2279;51.448;7.306;2022-10-17T15:49:01;24.03;;;5.53;;
4533;SDS011;2279;51.448;7.306;2022-10-17T15:51:27;7.50;;;5.17;;
4533;SDS011;2279;51.448;7.306;2022-10-17T15:53:53;6.33;;;5.00;;
4533;SDS011;2279;51.448;7.306;2022-10-17T15:56:20;12.43;;;5.40;;
4533;SDS011;2279;51.448;7.306;2022-10-17T15:58:47;8.93;;;5.10;;
4533;SDS011;2279;51.448;7.306;2022-10-17T16:01:21;11.20;;;6.33;;
4533;SDS011;2279;51.448;7.306;2022-10-17T16:03:48;9.40;;;5.63;;
4533;SDS011;2279;51.448;7.306;2022-10-17T16:06:15;11.40;;;6.07;;
4533;SDS011;2279;51.448;7.306;2022-10-17T16:08:41;7.77;;;5.13;;
4533;SDS011;2279;51.448;7.306;2022-10-17T16:11:10;10.77;;;5.03;;
4533;SDS011;2279;51.448;7.306;2022-10-17T16:13:38;11.83;;;5.67;;
4533;SDS011;2279;51.448;7.306;2022-10-17T16:16:07;9.40;;;5.27;;
4533;SDS011;2279;51.448;7.306;2022-10-17T16:18:33;12.93;;;6.47;;
4533;SDS011;2279;51.448;7.306;2022-10-17T16:20:59;7.63;;;5.23;;
4533;SDS011;2279;51.448;7.306;2022-10-17T16:23:25;8.33;;;5.80;;
4533;SDS011;2279;51.448;7.306;2022-10-17T16:25:51;7.33;;;5.47;;
4533;SDS011;2279;51.448;7.306;2022-10-17T16:28:16;5.33;;;4.83;;
4533;SDS011;2279;51.448;7.306;2022-10-17T16:30:42;6.73;;;4.90;;
4533;SDS011;2279;51.448;7.306;2022-10-17T16:33:10;9.20;;;5.67;;
4533;SDS011;2279;51.448;7.306;2022-10-17T16:35:36;8.33;;;5.83;;
4533;SDS011;2279;51.448;7.306;2022-10-17T16:38:03;10.53;;;6.57;;
4533;SDS011;2279;51.448;7.306;2022-10-17T16:40:29;14.53;;;7.20;;
4533;SDS011;2279;51.448;7.306;2022-10-17T16:42:55;16.47;;;5.97;;
4533;SDS011;2279;51.448;7.306;2022-10-17T16:45:21;10.60;;;7.10;;
4533;SDS011;2279;51.448;7.306;2022-10-17T16:47:47;8.47;;;6.27;;
4533;SDS011;2279;51.448;7.306;2022-10-17T16:50:14;8.13;;;6.30;;
4533;SDS011;2279;51.448;7.306;2022-10-17T16:52:40;10.00;;;7.27;;
4533;SDS011;2279;51.448;7.306;2022-10-17T16:55:06;8.40;;;7.30;;
4533;SDS011;2279;51.448;7.306;2022-10-17T16:57:33;10.00;;;6.00;;
4533;SDS011;2279;51.448;7.306;2022-10-17T16:59:59;14.53;;;8.10;;
4533;SDS011;2279;51.448;7.306;2022-10-17T17:02:25;12.30;;;6.77;;
4533;SDS011;2279;51.448;7.306;2022-10-17T17:04:51;8.47;;;7.20;;